sensor_id;sensor_type;location;lat;lon;timestamp;pressure;altitude;pressure_sealevel;temperature;humidity
49541;BME280;35432;43.566;1.398;2023-02-03T00:00:34;101766.47;;;3.30;70.61
49541;BME280;35432;43.566;1.398;2023-02-03T00:03:00;101768.25;;;3.31;70.53
49541;BME280;35432;43.566;1.398;2023-02-03T00:05:25;101758.72;;;3.32;71.16
49541;BME280;35432;43.566;1.398;2023-02-03T00:07:51;101759.63;;;3.32;70.42
49541;BME280;35432;43.566;1.398;2023-02-03T00:10:17;101751.88;;;3.34;71.12
49541;BME280;35432;43.566;1.398;2023-02-03T00:12:50;101757.09;;;3.34;71.04
49541;BME280;35432;43.566;1.398;2023-02-03T00:15:17;101751.88;;;3.34;71.13
49541;BME280;35432;43.566;1.398;2023-02-03T00:17:43;101766.63;;;3.33;70.69
49541;BME280;35432;43.566;1.398;2023-02-03T00:20:09;101752.63;;;3.31;71.10
49541;BME280;35432;43.566;1.398;2023-02-03T00:22:35;101760.34;;;3.29;70.62
49541;BME280;35432;43.566;1.398;2023-02-03T00:25:00;101754.28;;;3.29;70.92
49541;BME280;35432;43.566;1.398;2023-02-03T00:27:26;101750.72;;;3.27;71.05
49541;BME280;35432;43.566;1.398;2023-02-03T00:29:51;101747.09;;;3.25;71.09
49541;BME280;35432;43.566;1.398;2023-02-03T00:32:17;101746.06;;;3.21;70.89
49541;BME280;35432;43.566;1.398;2023-02-03T00:34:42;101752.00;;;3.19;70.66
49541;BME280;35432;43.566;1.398;2023-02-03T00:37:08;101740.63;;;3.16;71.02
49541;BME280;35432;43.566;1.398;2023-02-03T00:39:35;101750.06;;;3.14;70.74
49541;BME280;35432;43.566;1.398;2023-02-03T00:42:03;101748.13;;;3.10;71.06
49541;BME280;35432;43.566;1.398;2023-02-03T00:44:29;101754.16;;;3.09;70.95
49541;BME280;35432;43.566;1.398;2023-02-03T00:46:54;101755.84;;;3.09;71.32
49541;BME280;35432;43.566;1.398;2023-02-03T00:49:19;101753.19;;;3.07;71.14
49541;BME280;35432;43.566;1.398;2023-02-03T00:51:45;101755.78;;;3.07;71.07
49541;BME280;35432;43.566;1.398;2023-02-03T00:54:10;101758.31;;;3.06;70.97
49541;BME280;35432;43.566;1.398;2023-02-03T00:56:36;101760.03;;;3.05;70.84
49541;BME280;35432;43.566;1.398;2023-02-03T00:59:01;101754.81;;;3.05;71.06
49541;BME280;35432;43.566;1.398;2023-02-03T01:01:27;101765.25;;;3.05;71.10
49541;BME280;35432;43.566;1.398;2023-02-03T01:03:54;101760.84;;;3.04;71.34
49541;BME280;35432;43.566;1.398;2023-02-03T01:06:21;101765.25;;;3.05;71.16
49541;BME280;35432;43.566;1.398;2023-02-03T01:08:47;101763.44;;;3.04;71.05
49541;BME280;35432;43.566;1.398;2023-02-03T01:11:21;101759.88;;;3.02;70.84
49541;BME280;35432;43.566;1.398;2023-02-03T01:13:48;101766.94;;;3.05;71.67
49541;BME280;35432;43.566;1.398;2023-02-03T01:16:16;101766.78;;;3.01;71.06
49541;BME280;35432;43.566;1.398;2023-02-03T01:18:42;101765.81;;;2.99;71.70
49541;BME280;35432;43.566;1.398;2023-02-03T01:21:14;101775.16;;;2.96;71.17
49541;BME280;35432;43.566;1.398;2023-02-03T01:23:41;101785.66;;;2.97;71.65
49541;BME280;35432;43.566;1.398;2023-02-03T01:26:10;101786.47;;;2.96;71.24
49541;BME280;35432;43.566;1.398;2023-02-03T01:28:36;101783.78;;;2.95;71.80
49541;BME280;35432;43.566;1.398;2023-02-03T01:31:09;101785.41;;;2.93;71.78
49541;BME280;35432;43.566;1.398;2023-02-03T01:33:34;101782.75;;;2.91;71.65
49541;BME280;35432;43.566;1.398;2023-02-03T01:36:00;101784.44;;;2.91;71.48
49541;BME280;35432;43.566;1.398;2023-02-03T01:38:26;101788.69;;;2.89;71.80
49541;BME280;35432;43.566;1.398;2023-02-03T01:40:51;101792.97;;;2.88;71.84
49541;BME280;35432;43.566;1.398;2023-02-03T01:43:47;101785.81;;;2.84;70.88
49541;BME280;35432;43.566;1.398;2023-02-03T01:48:52;101778.78;;;2.81;71.09
49541;BME280;35432;43.566;1.398;2023-02-03T01:51:20;101787.19;;;2.77;71.23
49541;BME280;35432;43.566;1.398;2023-02-03T01:53:47;101780.88;;;2.72;70.84
49541;BME280;35432;43.566;1.398;2023-02-03T01:56:14;101784.13;;;2.68;70.90
49541;BME280;35432;43.566;1.398;2023-02-03T01:58:40;101784.78;;;2.64;71.49
49541;BME280;35432;43.566;1.398;2023-02-03T02:01:07;101787.22;;;2.61;71.57
49541;BME280;35432;43.566;1.398;2023-02-03T02:03:38;101788.84;;;2.58;71.64
49541;BME280;35432;43.566;1.398;2023-02-03T02:06:11;101780.16;;;2.58;71.14
49541;BME280;35432;43.566;1.398;2023-02-03T02:08:37;101781.88;;;2.57;71.90
49541;BME280;35432;43.566;1.398;2023-02-03T02:11:06;101775.75;;;2.57;71.11
49541;BME280;35432;43.566;1.398;2023-02-03T02:13:33;101778.34;;;2.57;70.96
49541;BME280;35432;43.566;1.398;2023-02-03T02:16:05;101780.09;;;2.56;71.71
49541;BME280;35432;43.566;1.398;2023-02-03T02:29:25;101761.38;;;2.47;71.39
49541;BME280;35432;43.566;1.398;2023-02-03T02:42:49;101760.63;;;2.33;71.42
49541;BME280;35432;43.566;1.398;2023-02-03T02:45:47;101752.56;;;2.28;70.92
49541;BME280;35432;43.566;1.398;2023-02-03T02:48:24;101751.59;;;2.26;71.24
49541;BME280;35432;43.566;1.398;2023-02-03T02:50:52;101750.56;;;2.23;71.32
49541;BME280;35432;43.566;1.398;2023-02-03T02:53:21;101746.88;;;2.19;71.88
49541;BME280;35432;43.566;1.398;2023-02-03T02:55:51;101757.13;;;2.16;71.14
49541;BME280;35432;43.566;1.398;2023-02-03T02:58:18;101755.19;;;2.12;71.86
49541;BME280;35432;43.566;1.398;2023-02-03T03:00:45;101748.19;;;2.11;71.57
49541;BME280;35432;43.566;1.398;2023-02-03T03:03:20;101755.88;;;2.09;71.01
49541;BME280;35432;43.566;1.398;2023-02-03T03:05:51;101746.25;;;2.07;71.03
49541;BME280;35432;43.566;1.398;2023-02-03T03:08:22;101741.84;;;2.06;71.83
49541;BME280;35432;43.566;1.398;2023-02-03T03:10:51;101748.03;;;2.08;71.45
49541;BME280;35432;43.566;1.398;2023-02-03T03:13:21;101739.25;;;2.06;71.19
49541;BME280;35432;43.566;1.398;2023-02-03T03:15:50;101737.53;;;2.06;71.96
49541;BME280;35432;43.566;1.398;2023-02-03T03:18:23;101724.44;;;2.05;71.59
49541;BME280;35432;43.566;1.398;2023-02-03T03:20:52;101735.66;;;2.04;71.57
49541;BME280;35432;43.566;1.398;2023-02-03T03:23:23;101733.00;;;2.02;71.16
49541;BME280;35432;43.566;1.398;2023-02-03T03:25:56;101722.50;;;2.00;71.57
49541;BME280;35432;43.566;1.398;2023-02-03T03:28:29;101731.91;;;1.98;71.44
49541;BME280;35432;43.566;1.398;2023-02-03T03:30:58;101727.47;;;1.96;71.61
49541;BME280;35432;43.566;1.398;2023-02-03T03:33:23;101725.59;;;1.93;71.59
49541;BME280;35432;43.566;1.398;2023-02-03T03:35:58;101735.88;;;1.92;71.02
49541;BME280;35432;43.566;1.398;2023-02-03T03:38:49;101739.22;;;1.89;71.05
49541;BME280;35432;43.566;1.398;2023-02-03T03:43:58;101735.53;;;1.85;71.85
49541;BME280;35432;43.566;1.398;2023-02-03T03:46:30;101738.94;;;1.84;71.61
49541;BME280;35432;43.566;1.398;2023-02-03T03:49:01;101732.78;;;1.82;71.47
49541;BME280;35432;43.566;1.398;2023-02-03T03:51:40;101733.59;;;1.81;71.78
49541;BME280;35432;43.566;1.398;2023-02-03T03:54:11;101737.88;;;1.81;71.48
49541;BME280;35432;43.566;1.398;2023-02-03T03:56:44;101741.22;;;1.78;71.83
49541;BME280;35432;43.566;1.398;2023-02-03T03:59:13;101745.44;;;1.76;71.34
49541;BME280;35432;43.566;1.398;2023-02-03T04:01:41;101753.94;;;1.74;71.42
49541;BME280;35432;43.566;1.398;2023-02-03T04:04:09;101747.75;;;1.71;71.45
49541;BME280;35432;43.566;1.398;2023-02-03T04:06:37;101747.59;;;1.68;71.88
49541;BME280;35432;43.566;1.398;2023-02-03T04:09:03;101752.69;;;1.67;71.92
49541;BME280;35432;43.566;1.398;2023-02-03T04:11:29;101759.44;;;1.63;71.34
49541;BME280;35432;43.566;1.398;2023-02-03T04:14:14;101755.84;;;1.61;71.81
49541;BME280;35432;43.566;1.398;2023-02-03T04:16:39;101757.47;;;1.59;71.88
49541;BME280;35432;43.566;1.398;2023-02-03T04:19:04;101764.28;;;1.57;71.36
49541;BME280;35432;43.566;1.398;2023-02-03T04:21:30;101764.19;;;1.55;71.94
49541;BME280;35432;43.566;1.398;2023-02-03T04:23:55;101758.88;;;1.54;71.25
49541;BME280;35432;43.566;1.398;2023-02-03T04:26:21;101755.31;;;1.52;71.35
49541;BME280;35432;43.566;1.398;2023-02-03T04:28:46;101761.31;;;1.51;71.56
49541;BME280;35432;43.566;1.398;2023-02-03T04:31:12;101761.31;;;1.51;71.92
49541;BME280;35432;43.566;1.398;2023-02-03T04:33:37;101762.13;;;1.50;71.49
49541;BME280;35432;43.566;1.398;2023-02-03T04:36:03;101761.94;;;1.47;72.01
49541;BME280;35432;43.566;1.398;2023-02-03T04:38:28;101766.16;;;1.45;72.05
49541;BME280;35432;43.566;1.398;2023-02-03T04:40:54;101770.38;;;1.42;71.83
49541;BME280;35432;43.566;1.398;2023-02-03T04:43:19;101772.88;;;1.41;71.58
49541;BME280;35432;43.566;1.398;2023-02-03T04:45:44;101773.59;;;1.38;71.84
49541;BME280;35432;43.566;1.398;2023-02-03T04:48:10;101770.84;;;1.35;71.61
49541;BME280;35432;43.566;1.398;2023-02-03T04:50:35;101769.84;;;1.33;71.56
49541;BME280;35432;43.566;1.398;2023-02-03T04:53:01;101776.63;;;1.31;71.81
49541;BME280;35432;43.566;1.398;2023-02-03T04:55:27;101774.78;;;1.28;71.46
49541;BME280;35432;43.566;1.398;2023-02-03T04:57:57;101774.66;;;1.27;71.45
49541;BME280;35432;43.566;1.398;2023-02-03T05:00:23;101778.00;;;1.24;71.35
49541;BME280;35432;43.566;1.398;2023-02-03T05:02:48;101768.41;;;1.23;71.37
49541;BME280;35432;43.566;1.398;2023-02-03T05:05:14;101757.13;;;1.23;71.50
49541;BME280;35432;43.566;1.398;2023-02-03T05:07:39;101752.75;;;1.22;71.21
49541;BME280;35432;43.566;1.398;2023-02-03T05:10:05;101756.16;;;1.21;71.37
49541;BME280;35432;43.566;1.398;2023-02-03T05:12:31;101763.94;;;1.21;71.70
49541;BME280;35432;43.566;1.398;2023-02-03T05:14:56;101761.22;;;1.19;71.92
49541;BME280;35432;43.566;1.398;2023-02-03T05:17:22;101762.94;;;1.19;71.85
49541;BME280;35432;43.566;1.398;2023-02-03T05:19:47;101763.75;;;1.18;71.27
49541;BME280;35432;43.566;1.398;2023-02-03T05:22:13;101749.81;;;1.16;71.58
49541;BME280;35432;43.566;1.398;2023-02-03T05:24:38;101759.44;;;1.18;72.27
49541;BME280;35432;43.566;1.398;2023-02-03T05:27:03;101756.03;;;1.19;71.91
49541;BME280;35432;43.566;1.398;2023-02-03T05:29:29;101762.16;;;1.20;72.30
49541;BME280;35432;43.566;1.398;2023-02-03T05:31:54;101762.16;;;1.20;71.69
49541;BME280;35432;43.566;1.398;2023-02-03T05:34:20;101756.97;;;1.20;72.19
49541;BME280;35432;43.566;1.398;2023-02-03T05:36:45;101754.25;;;1.18;71.86
49541;BME280;35432;43.566;1.398;2023-02-03T05:39:11;101751.59;;;1.17;71.94
49541;BME280;35432;43.566;1.398;2023-02-03T05:41:36;101758.47;;;1.16;72.68
49541;BME280;35432;43.566;1.398;2023-02-03T05:44:24;101749.88;;;1.17;72.10
49541;BME280;35432;43.566;1.398;2023-02-03T05:46:51;101743.00;;;1.18;72.03
49541;BME280;35432;43.566;1.398;2023-02-03T05:49:18;101742.03;;;1.16;72.04
49541;BME280;35432;43.566;1.398;2023-02-03T05:51:48;101748.91;;;1.15;72.33
49541;BME280;35432;43.566;1.398;2023-02-03T05:54:13;101754.81;;;1.12;72.57
49541;BME280;35432;43.566;1.398;2023-02-03T05:56:39;101749.53;;;1.11;72.02
49541;BME280;35432;43.566;1.398;2023-02-03T05:59:04;101752.94;;;1.10;72.28
49541;BME280;35432;43.566;1.398;2023-02-03T06:01:31;101748.53;;;1.09;71.51
49541;BME280;35432;43.566;1.398;2023-02-03T06:03:57;101751.84;;;1.06;72.34
49541;BME280;35432;43.566;1.398;2023-02-03T06:06:22;101763.03;;;1.05;72.13
49541;BME280;35432;43.566;1.398;2023-02-03T06:08:48;101759.44;;;1.03;71.56
49541;BME280;35432;43.566;1.398;2023-02-03T06:11:16;101773.22;;;1.02;72.24
49541;BME280;35432;43.566;1.398;2023-02-03T06:13:42;101776.63;;;1.01;72.15
49541;BME280;35432;43.566;1.398;2023-02-03T06:16:07;101773.16;;;1.00;71.85
49541;BME280;35432;43.566;1.398;2023-02-03T06:18:33;101785.22;;;1.00;71.62
49541;BME280;35432;43.566;1.398;2023-02-03T06:20:58;101780.81;;;0.99;71.54
49541;BME280;35432;43.566;1.398;2023-02-03T06:23:24;101786.81;;;0.98;71.72
49541;BME280;35432;43.566;1.398;2023-02-03T06:25:50;101778.06;;;0.96;71.85
49541;BME280;35432;43.566;1.398;2023-02-03T06:28:16;101791.81;;;0.95;71.57
49541;BME280;35432;43.566;1.398;2023-02-03T06:30:42;101801.22;;;0.93;71.65
49541;BME280;35432;43.566;1.398;2023-02-03T06:33:07;101791.66;;;0.92;72.13
49541;BME280;35432;43.566;1.398;2023-02-03T06:35:33;101796.72;;;0.90;71.92
49541;BME280;35432;43.566;1.398;2023-02-03T06:37:58;101798.34;;;0.88;71.64
49541;BME280;35432;43.566;1.398;2023-02-03T06:40:24;101799.06;;;0.85;71.58
49541;BME280;35432;43.566;1.398;2023-02-03T06:42:50;101792.88;;;0.83;72.15
49541;BME280;35432;43.566;1.398;2023-02-03T06:45:16;101796.25;;;0.82;72.14
49541;BME280;35432;43.566;1.398;2023-02-03T06:47:43;101790.91;;;0.79;71.68
49541;BME280;35432;43.566;1.398;2023-02-03T06:50:11;101780.53;;;0.79;71.82
49541;BME280;35432;43.566;1.398;2023-02-03T06:52:37;101780.53;;;0.79;71.85
49541;BME280;35432;43.566;1.398;2023-02-03T06:55:04;101783.03;;;0.78;72.25
49541;BME280;35432;43.566;1.398;2023-02-03T06:57:30;101784.91;;;0.80;71.89
49541;BME280;35432;43.566;1.398;2023-02-03T06:59:55;101780.69;;;0.82;72.04
49541;BME280;35432;43.566;1.398;2023-02-03T07:02:22;101780.09;;;0.87;72.29
49541;BME280;35432;43.566;1.398;2023-02-03T07:04:47;101784.66;;;0.91;72.30
49541;BME280;35432;43.566;1.398;2023-02-03T07:07:12;101775.34;;;0.94;72.09
49541;BME280;35432;43.566;1.398;2023-02-03T07:09:39;101772.16;;;0.98;72.38
49541;BME280;35432;43.566;1.398;2023-02-03T07:12:05;101769.75;;;1.02;72.15
49541;BME280;35432;43.566;1.398;2023-02-03T07:14:31;101782.97;;;1.06;72.55
49541;BME280;35432;43.566;1.398;2023-02-03T07:16:56;101787.56;;;1.10;72.42
49541;BME280;35432;43.566;1.398;2023-02-03T07:19:21;101790.22;;;1.12;72.20
49541;BME280;35432;43.566;1.398;2023-02-03T07:21:47;101791.31;;;1.16;72.76
49541;BME280;35432;43.566;1.398;2023-02-03T07:24:13;101798.47;;;1.20;72.86
49541;BME280;35432;43.566;1.398;2023-02-03T07:26:38;101803.03;;;1.24;72.11
49541;BME280;35432;43.566;1.398;2023-02-03T07:29:04;101805.91;;;1.28;72.36
49541;BME280;35432;43.566;1.398;2023-02-03T07:31:30;101806.97;;;1.32;72.53
49541;BME280;35432;43.566;1.398;2023-02-03T07:33:56;101800.25;;;1.36;72.09
49541;BME280;35432;43.566;1.398;2023-02-03T07:36:21;101802.22;;;1.40;72.10
49541;BME280;35432;43.566;1.398;2023-02-03T07:38:48;101800.81;;;1.45;72.34
49541;BME280;35432;43.566;1.398;2023-02-03T07:41:14;101801.16;;;1.51;72.46
49541;BME280;35432;43.566;1.398;2023-02-03T07:43:39;101808.50;;;1.58;71.81
49541;BME280;35432;43.566;1.398;2023-02-03T07:46:05;101814.19;;;1.68;72.57
49541;BME280;35432;43.566;1.398;2023-02-03T07:48:30;101818.31;;;1.79;71.74
49541;BME280;35432;43.566;1.398;2023-02-03T07:50:56;101819.91;;;1.92;71.76
49541;BME280;35432;43.566;1.398;2023-02-03T07:53:21;101819.72;;;2.04;72.18
49541;BME280;35432;43.566;1.398;2023-02-03T07:55:47;101816.09;;;2.17;72.19
49541;BME280;35432;43.566;1.398;2023-02-03T07:58:12;101816.94;;;2.33;71.78
49541;BME280;35432;43.566;1.398;2023-02-03T08:00:37;101811.75;;;2.49;71.88
49541;BME280;35432;43.566;1.398;2023-02-03T08:03:03;101810.31;;;2.71;71.55
49541;BME280;35432;43.566;1.398;2023-02-03T08:05:28;101797.84;;;2.98;71.29
49541;BME280;35432;43.566;1.398;2023-02-03T08:07:55;101803.38;;;3.39;71.13
49541;BME280;35432;43.566;1.398;2023-02-03T08:10:21;101806.25;;;3.98;70.29
49541;BME280;35432;43.566;1.398;2023-02-03T08:12:46;101802.16;;;4.81;69.63
49541;BME280;35432;43.566;1.398;2023-02-03T08:15:13;101785.16;;;5.95;68.71
49541;BME280;35432;43.566;1.398;2023-02-03T08:17:38;101779.31;;;7.49;69.87
49541;BME280;35432;43.566;1.398;2023-02-03T08:20:06;101773.41;;;9.36;69.53
49541;BME280;35432;43.566;1.398;2023-02-03T08:22:32;101774.72;;;11.21;67.71
49541;BME280;35432;43.566;1.398;2023-02-03T08:24:57;101765.63;;;12.88;64.78
49541;BME280;35432;43.566;1.398;2023-02-03T08:27:23;101750.88;;;14.41;61.77
49541;BME280;35432;43.566;1.398;2023-02-03T08:29:48;101741.31;;;15.73;58.64
49541;BME280;35432;43.566;1.398;2023-02-03T08:32:17;101740.91;;;16.84;56.78
49541;BME280;35432;43.566;1.398;2023-02-03T08:34:43;101736.63;;;17.75;54.42
49541;BME280;35432;43.566;1.398;2023-02-03T08:37:09;101736.63;;;18.51;52.89
49541;BME280;35432;43.566;1.398;2023-02-03T08:39:36;101722.00;;;19.37;51.46
49541;BME280;35432;43.566;1.398;2023-02-03T08:42:02;101716.88;;;20.22;49.79
49541;BME280;35432;43.566;1.398;2023-02-03T08:44:29;101720.50;;;21.00;47.95
49541;BME280;35432;43.566;1.398;2023-02-03T08:46:54;101727.66;;;21.70;46.70
49541;BME280;35432;43.566;1.398;2023-02-03T08:49:20;101728.63;;;22.31;45.31
49541;BME280;35432;43.566;1.398;2023-02-03T08:51:46;101719.78;;;22.86;44.36
49541;BME280;35432;43.566;1.398;2023-02-03T08:54:13;101714.84;;;23.29;43.02
49541;BME280;35432;43.566;1.398;2023-02-03T08:56:39;101713.31;;;23.72;41.98
49541;BME280;35432;43.566;1.398;2023-02-03T08:59:05;101715.47;;;24.12;41.15
49541;BME280;35432;43.566;1.398;2023-02-03T09:01:30;101711.03;;;24.34;40.39
49541;BME280;35432;43.566;1.398;2023-02-03T09:03:56;101708.09;;;24.41;40.24
49541;BME280;35432;43.566;1.398;2023-02-03T09:06:22;101693.06;;;24.81;39.95
49541;BME280;35432;43.566;1.398;2023-02-03T09:08:47;101707.41;;;25.25;39.35
49541;BME280;35432;43.566;1.398;2023-02-03T09:11:15;101710.06;;;25.68;39.21
49541;BME280;35432;43.566;1.398;2023-02-03T09:13:41;101713.66;;;26.08;38.26
49541;BME280;35432;43.566;1.398;2023-02-03T09:16:14;101707.56;;;26.43;37.58
49541;BME280;35432;43.566;1.398;2023-02-03T09:18:46;101720.97;;;26.63;37.54
49541;BME280;35432;43.566;1.398;2023-02-03T09:21:13;101720.72;;;26.87;37.30
49541;BME280;35432;43.566;1.398;2023-02-03T09:23:40;101707.03;;;27.10;36.84
49541;BME280;35432;43.566;1.398;2023-02-03T09:26:07;101713.78;;;27.36;36.59
49541;BME280;35432;43.566;1.398;2023-02-03T09:28:34;101712.84;;;27.55;36.21
49541;BME280;35432;43.566;1.398;2023-02-03T09:31:03;101720.00;;;27.56;35.40
49541;BME280;35432;43.566;1.398;2023-02-03T09:33:29;101709.78;;;27.78;35.67
49541;BME280;35432;43.566;1.398;2023-02-03T09:35:55;101701.09;;;28.05;35.10
49541;BME280;35432;43.566;1.398;2023-02-03T09:38:22;101710.69;;;28.29;34.97
49541;BME280;35432;43.566;1.398;2023-02-03T09:40:52;101719.63;;;28.47;34.33
49541;BME280;35432;43.566;1.398;2023-02-03T09:45:47;101722.06;;;28.68;33.98
49541;BME280;35432;43.566;1.398;2023-02-03T09:48:21;101731.22;;;28.65;31.32
49541;BME280;35432;43.566;1.398;2023-02-03T09:50:49;101736.34;;;28.87;33.83
49541;BME280;35432;43.566;1.398;2023-02-03T09:53:34;101719.53;;;28.81;32.01
49541;BME280;35432;43.566;1.398;2023-02-03T09:56:02;101727.72;;;29.11;33.27
49541;BME280;35432;43.566;1.398;2023-02-03T09:58:32;101723.06;;;29.13;33.06
49541;BME280;35432;43.566;1.398;2023-02-03T10:01:00;101733.16;;;29.26;32.84
49541;BME280;35432;43.566;1.398;2023-02-03T10:03:37;101730.28;;;29.45;33.14
49541;BME280;35432;43.566;1.398;2023-02-03T10:17:25;101747.66;;;29.71;30.52
49541;BME280;35432;43.566;1.398;2023-02-03T10:20:25;101757.75;;;29.84;32.54
49541;BME280;35432;43.566;1.398;2023-02-03T10:23:06;101741.50;;;30.13;32.82
49541;BME280;35432;43.566;1.398;2023-02-03T10:25:46;101756.06;;;30.12;32.25
49541;BME280;35432;43.566;1.398;2023-02-03T10:28:18;101751.56;;;30.25;32.17
49541;BME280;35432;43.566;1.398;2023-02-03T10:30:50;101748.06;;;30.23;31.81
49541;BME280;35432;43.566;1.398;2023-02-03T10:33:19;101742.06;;;30.32;32.09
49541;BME280;35432;43.566;1.398;2023-02-03T10:35:52;101744.66;;;30.34;31.82
49541;BME280;35432;43.566;1.398;2023-02-03T10:41:07;101748.31;;;30.62;31.59
49541;BME280;35432;43.566;1.398;2023-02-03T10:43:33;101749.78;;;30.68;31.51
49541;BME280;35432;43.566;1.398;2023-02-03T10:46:12;101752.09;;;30.59;31.50
49541;BME280;35432;43.566;1.398;2023-02-03T10:48:38;101762.22;;;30.57;31.48
49541;BME280;35432;43.566;1.398;2023-02-03T10:51:31;101755.41;;;30.50;29.40
49541;BME280;35432;43.566;1.398;2023-02-03T10:53:57;101735.78;;;30.59;32.11
49541;BME280;35432;43.566;1.398;2023-02-03T10:56:35;101729.44;;;30.31;29.27
49541;BME280;35432;43.566;1.398;2023-02-03T10:59:02;101738.16;;;30.36;31.94
49541;BME280;35432;43.566;1.398;2023-02-03T11:04:01;101732.66;;;30.24;30.39
49541;BME280;35432;43.566;1.398;2023-02-03T11:06:31;101726.03;;;30.28;32.44
49541;BME280;35432;43.566;1.398;2023-02-03T11:08:57;101728.47;;;29.89;32.57
49541;BME280;35432;43.566;1.398;2023-02-03T11:16:28;101728.63;;;28.63;34.41
49541;BME280;35432;43.566;1.398;2023-02-03T11:19:14;101724.38;;;28.10;34.20
49541;BME280;35432;43.566;1.398;2023-02-03T11:21:47;101726.75;;;27.29;35.54
49541;BME280;35432;43.566;1.398;2023-02-03T11:24:18;101721.44;;;26.35;36.63
49541;BME280;35432;43.566;1.398;2023-02-03T11:29:26;101721.75;;;24.82;39.63
49541;BME280;35432;43.566;1.398;2023-02-03T11:31:54;101722.06;;;24.28;41.45
49541;BME280;35432;43.566;1.398;2023-02-03T11:34:30;101722.94;;;23.79;41.44
49541;BME280;35432;43.566;1.398;2023-02-03T11:37:22;101731.44;;;23.13;39.64
49541;BME280;35432;43.566;1.398;2023-02-03T11:39:54;101736.56;;;22.65;43.89
49541;BME280;35432;43.566;1.398;2023-02-03T11:42:22;101743.19;;;22.22;45.03
49541;BME280;35432;43.566;1.398;2023-02-03T11:44:48;101739.75;;;21.85;45.75
49541;BME280;35432;43.566;1.398;2023-02-03T11:47:14;101738.00;;;21.49;46.41
49541;BME280;35432;43.566;1.398;2023-02-03T12:06:20;101722.72;;;18.92;46.11
49541;BME280;35432;43.566;1.398;2023-02-03T12:17:34;101716.75;;;18.07;48.97
49541;BME280;35432;43.566;1.398;2023-02-03T12:30:45;101695.38;;;17.29;52.33
49541;BME280;35432;43.566;1.398;2023-02-03T12:33:29;101691.94;;;17.16;50.37
49541;BME280;35432;43.566;1.398;2023-02-03T12:36:27;101684.06;;;16.96;48.84
49541;BME280;35432;43.566;1.398;2023-02-03T12:41:30;101681.41;;;16.99;51.62
49541;BME280;35432;43.566;1.398;2023-02-03T12:44:07;101677.91;;;16.92;50.30
49541;BME280;35432;43.566;1.398;2023-02-03T12:46:44;101672.63;;;16.84;51.60
49541;BME280;35432;43.566;1.398;2023-02-03T12:52:00;101661.31;;;16.51;52.65
49541;BME280;35432;43.566;1.398;2023-02-03T12:54:40;101659.56;;;16.47;52.04
49541;BME280;35432;43.566;1.398;2023-02-03T12:59:41;101658.59;;;16.59;54.50
49541;BME280;35432;43.566;1.398;2023-02-03T13:02:17;101655.97;;;16.56;51.73
49541;BME280;35432;43.566;1.398;2023-02-03T13:04:52;101655.09;;;16.54;53.18
49541;BME280;35432;43.566;1.398;2023-02-03T13:08:01;101641.91;;;16.36;51.54
49541;BME280;35432;43.566;1.398;2023-02-03T13:10:40;101641.88;;;16.44;52.23
49541;BME280;35432;43.566;1.398;2023-02-03T13:13:13;101643.69;;;16.38;51.88
49541;BME280;35432;43.566;1.398;2023-02-03T13:15:46;101635.81;;;16.19;52.71
49541;BME280;35432;43.566;1.398;2023-02-03T13:18:34;101634.13;;;16.04;51.68
49541;BME280;35432;43.566;1.398;2023-02-03T13:21:01;101630.56;;;16.10;55.75
49541;BME280;35432;43.566;1.398;2023-02-03T13:23:26;101630.56;;;16.10;55.73
49541;BME280;35432;43.566;1.398;2023-02-03T13:28:59;101619.06;;;16.03;51.59
49541;BME280;35432;43.566;1.398;2023-02-03T13:34:41;101616.41;;;16.04;55.91
49541;BME280;35432;43.566;1.398;2023-02-03T13:42:38;101621.78;;;15.86;55.10
49541;BME280;35432;43.566;1.398;2023-02-03T13:45:28;101606.78;;;15.74;52.50
49541;BME280;35432;43.566;1.398;2023-02-03T13:50:39;101602.38;;;15.68;56.50
49541;BME280;35432;43.566;1.398;2023-02-03T13:53:13;101597.06;;;15.65;56.16
49541;BME280;35432;43.566;1.398;2023-02-03T13:55:42;101602.38;;;15.65;56.02
49541;BME280;35432;43.566;1.398;2023-02-03T13:58:23;101600.63;;;15.55;52.82
49541;BME280;35432;43.566;1.398;2023-02-03T14:05:48;101601.56;;;15.36;53.18
49541;BME280;35432;43.566;1.398;2023-02-03T14:22:01;101607.81;;;15.11;56.27
49541;BME280;35432;43.566;1.398;2023-02-03T14:24:33;101605.16;;;15.07;56.68
49541;BME280;35432;43.566;1.398;2023-02-03T14:27:02;101602.50;;;15.06;57.60
49541;BME280;35432;43.566;1.398;2023-02-03T14:29:31;101613.16;;;14.98;57.11
49541;BME280;35432;43.566;1.398;2023-02-03T14:34:42;101600.75;;;14.71;52.88
49541;BME280;35432;43.566;1.398;2023-02-03T14:37:24;101606.03;;;14.64;57.95
49541;BME280;35432;43.566;1.398;2023-02-03T14:43:14;101603.38;;;14.49;55.14
49541;BME280;35432;43.566;1.398;2023-02-03T14:49:06;101602.47;;;14.41;54.40
49541;BME280;35432;43.566;1.398;2023-02-03T14:56:51;101598.03;;;14.27;59.04
49541;BME280;35432;43.566;1.398;2023-02-03T15:02:32;101592.69;;;14.16;59.52
49541;BME280;35432;43.566;1.398;2023-02-03T15:07:45;101598.84;;;14.04;59.22
49541;BME280;35432;43.566;1.398;2023-02-03T15:12:49;101590.00;;;13.90;58.19
49541;BME280;35432;43.566;1.398;2023-02-03T15:17:47;101601.41;;;13.75;60.30
49541;BME280;35432;43.566;1.398;2023-02-03T15:22:53;101603.97;;;13.58;60.51
49541;BME280;35432;43.566;1.398;2023-02-03T15:25:20;101603.03;;;13.49;60.63
49541;BME280;35432;43.566;1.398;2023-02-03T15:27:46;101606.50;;;13.41;60.70
49541;BME280;35432;43.566;1.398;2023-02-03T15:30:26;101609.06;;;13.28;56.18
49541;BME280;35432;43.566;1.398;2023-02-03T15:33:01;101611.66;;;13.20;58.53
49541;BME280;35432;43.566;1.398;2023-02-03T15:35:31;101608.97;;;13.14;61.14
49541;BME280;35432;43.566;1.398;2023-02-03T15:38:06;101618.59;;;13.04;58.78
49541;BME280;35432;43.566;1.398;2023-02-03T15:40:41;101611.53;;;13.02;60.86
49541;BME280;35432;43.566;1.398;2023-02-03T15:45:54;101608.78;;;12.89;61.54